Talia H — 8PAM9 — position and weather

sailwx.info

Track history (hours):
 
Tides and Currents Weather Stations Pressure Air Temp Water Temp Dewpoint Dewpoint Depression Visibility Wind Speed Wind Dir Waves Ship Positions

Talia H

Last reported at 2018-Mar-18 16:04 UTC. Time now 2018-Apr-26 23:15 UTC.
Position N 08°06' W 015°19'.
Warning: this ship's position is 39 days out of date.

Length 140 m; draft 7.8 m.

Type: Cargo ship. MMSI: 314440000.

Date/timePositionNaut miles runAvg speedWind from/ knotsBaromVisibWave heightAir tempDewpointWater temp
2018-Mar-18 16:04N 08°06' W 015°19'114.3
2018-Mar-18 16:01N 08°07' W 015°20'714.3
2018-Mar-18 15:30N 08°13' W 015°24'2814.1
2018-Mar-18 13:30N 08°36' W 015°41'713.8
2018-Mar-18 12:59N 08°41' W 015°45'713.8
2018-Mar-18 12:30N 08°47' W 015°49'713.8
2018-Mar-18 11:58N 08°53' W 015°54'1014.0
2018-Mar-18 11:15N 09°01' W 015°60'1114.0
2018-Mar-18 10:29N 09°09' W 016°06'1014.3
2018-Mar-18 09:46N 09°17' W 016°12'414.4
2018-Mar-18 09:30N 09°21' W 016°15'714.3
2018-Mar-18 09:00N 09°26' W 016°19'814.4
2018-Mar-18 08:29N 09°32' W 016°23'714.6
2018-Mar-18 08:00N 09°38' W 016°28'  
2018-Mar-12 22:41N 35°58' W 005°37'212.4
2018-Mar-12 22:30N 35°59' W 005°34'611.9
2018-Mar-12 22:00N 36°00' W 005°27'510.7
2018-Mar-12 21:30N 36°04' W 005°23'4 1.6
2018-Mar-12 18:57N 36°09' W 005°22'1 0.1
2018-Mar-12 11:10N 36°08' W 005°22'2 5.4
2018-Mar-12 10:50N 36°06' W 005°22'2 6.2
2018-Mar-12 10:30N 36°05' W 005°20'216 5.3
2018-Mar-10 17:34N 37°13' W 001°04'113.2
2018-Mar-10 17:29N 37°13' W 001°03'813.2
2018-Mar-10 16:51N 37°19' W 000°55'512.7
2018-Mar-10 16:29N 37°22' W 000°51'612.5
2018-Mar-10 16:00N 37°26' W 000°45'811.5
2018-Mar-10 15:20N 37°31' W 000°38'412.1
2018-Mar-10 14:59N 37°34' W 000°34'612.4
2018-Mar-10 14:29N 37°39' W 000°29'18613.2
2018-Mar-10 00:26N 39°49' E 002°22'812.7
2018-Mar-09 23:46N 39°53' E 002°31'412.7
2018-Mar-09 23:29N 39°55' E 002°35'713.2
2018-Mar-09 22:59N 39°59' E 002°42'713.5
2018-Mar-09 22:30N 40°02' E 002°49'33913.8
2018-Mar-08 21:57N 43°11' E 009°07'613.7
2018-Mar-08 21:30N 43°14' E 009°13'713.6
2018-Mar-08 21:00N 43°18' E 009°21'713.8
2018-Mar-08 20:30N 43°22' E 009°29'  
Track history (hours):
 
Tides and Currents Weather Stations Pressure Air Temp Water Temp Dewpoint Dewpoint Depression Visibility Wind Speed Wind Dir Waves Ship Positions

Talia H

Last reported at 2018-Mar-18 16:04 UTC. Time now 2018-Apr-26 23:15 UTC.
Position N 08°06' W 015°19'.
Warning: this ship's position is 39 days out of date.

Length 140 m; draft 7.8 m.

Type: Cargo ship. MMSI: 314440000.

Date/timePositionNaut miles runAvg speedWind from/ knotsBaromVisibWave heightAir tempDewpointWater temp
2018-Mar-18 16:04N 08°06' W 015°19'114.3
2018-Mar-18 16:01N 08°07' W 015°20'714.3
2018-Mar-18 15:30N 08°13' W 015°24'2814.1
2018-Mar-18 13:30N 08°36' W 015°41'713.8
2018-Mar-18 12:59N 08°41' W 015°45'713.8
2018-Mar-18 12:30N 08°47' W 015°49'713.8
2018-Mar-18 11:58N 08°53' W 015°54'1014.0
2018-Mar-18 11:15N 09°01' W 015°60'1114.0
2018-Mar-18 10:29N 09°09' W 016°06'1014.3
2018-Mar-18 09:46N 09°17' W 016°12'414.4
2018-Mar-18 09:30N 09°21' W 016°15'714.3
2018-Mar-18 09:00N 09°26' W 016°19'814.4
2018-Mar-18 08:29N 09°32' W 016°23'714.6
2018-Mar-18 08:00N 09°38' W 016°28'  
2018-Mar-12 22:41N 35°58' W 005°37'212.4
2018-Mar-12 22:30N 35°59' W 005°34'611.9
2018-Mar-12 22:00N 36°00' W 005°27'510.7
2018-Mar-12 21:30N 36°04' W 005°23'4 1.6
2018-Mar-12 18:57N 36°09' W 005°22'1 0.1
2018-Mar-12 11:10N 36°08' W 005°22'2 5.4
2018-Mar-12 10:50N 36°06' W 005°22'2 6.2
2018-Mar-12 10:30N 36°05' W 005°20'216 5.3
2018-Mar-10 17:34N 37°13' W 001°04'113.2
2018-Mar-10 17:29N 37°13' W 001°03'813.2
2018-Mar-10 16:51N 37°19' W 000°55'512.7
2018-Mar-10 16:29N 37°22' W 000°51'612.5
2018-Mar-10 16:00N 37°26' W 000°45'811.5
2018-Mar-10 15:20N 37°31' W 000°38'412.1
2018-Mar-10 14:59N 37°34' W 000°34'612.4
2018-Mar-10 14:29N 37°39' W 000°29'18613.2
2018-Mar-10 00:26N 39°49' E 002°22'812.7
2018-Mar-09 23:46N 39°53' E 002°31'412.7
2018-Mar-09 23:29N 39°55' E 002°35'713.2
2018-Mar-09 22:59N 39°59' E 002°42'713.5
2018-Mar-09 22:30N 40°02' E 002°49'33913.8
2018-Mar-08 21:57N 43°11' E 009°07'613.7
2018-Mar-08 21:30N 43°14' E 009°13'713.6
2018-Mar-08 21:00N 43°18' E 009°21'713.8
2018-Mar-08 20:30N 43°22' E 009°29'  

Dump ship's entire track history